Time;durP1;ratioP1;P1;durP2;ratioP2;P2;SDS_P1;SDS_P2;PMS_P1;PMS_P2;Temp;Humidity;BMP_temperature;BMP_pressure;BME280_temperature;BME280_humidity;BME280_pressure;Samples;Min_cycle;Max_cycle;Signal;HPM_P1;HPM_P2
2021/08/19 00:02:08;;;;;;;2.72;1.57;;;;;;;13.35;80.10;98584.39;1662461;84;20969;-76
2021/08/19 00:04:35;;;;;;;1.60;1.50;;;;;;;13.37;80.12;98582.02;1684044;84;21073;-76
2021/08/19 00:07:02;;;;;;;2.87;1.85;;;;;;;13.40;80.20;98580.95;1686710;84;21097;-76
2021/08/19 00:09:30;;;;;;;1.75;1.40;;;;;;;13.41;80.22;98573.44;1683777;84;21148;-76
2021/08/19 00:11:57;;;;;;;1.37;1.27;;;;;;;13.42;80.24;98572.50;1686627;84;21562;-76
2021/08/19 00:14:24;;;;;;;2.22;1.22;;;;;;;13.42;80.28;98570.70;1688900;84;21001;-76
2021/08/19 00:16:51;;;;;;;1.85;1.50;;;;;;;13.42;80.40;98577.74;1680483;83;21067;-76
2021/08/19 00:19:17;;;;;;;3.80;1.30;;;;;;;13.43;80.35;98575.47;1686385;84;21088;-75
2021/08/19 00:21:44;;;;;;;1.40;1.10;;;;;;;13.42;80.40;98578.58;1678613;84;21081;-76
2021/08/19 00:24:12;;;;;;;2.40;1.10;;;;;;;13.43;80.50;98572.84;1682141;84;21080;-76
2021/08/19 00:26:39;;;;;;;2.83;1.35;;;;;;;13.42;80.55;98576.44;1675725;84;20986;-76
2021/08/19 00:29:05;;;;;;;2.87;1.50;;;;;;;13.40;80.59;98567.36;1683443;84;21078;-76
2021/08/19 00:31:32;;;;;;;1.30;1.20;;;;;;;13.43;80.72;98574.16;1667620;84;21113;-76
2021/08/19 00:33:59;;;;;;;1.40;1.30;;;;;;;13.43;80.75;98580.71;1669394;84;21635;-76
2021/08/19 00:36:25;;;;;;;1.30;1.20;;;;;;;13.37;80.83;98553.66;1650750;84;21444;-76
2021/08/19 00:38:55;;;;;;;2.17;1.22;;;;;;;13.46;80.83;98571.30;1671779;84;21133;-77
2021/08/19 00:41:22;;;;;;;1.45;1.30;;;;;;;13.47;80.87;98567.74;1651768;84;21770;-76
2021/08/19 00:43:51;;;;;;;1.60;0.97;;;;;;;13.47;80.84;98566.43;1646528;85;20978;-76
2021/08/19 00:46:32;;;;;;;1.22;1.00;;;;;;;13.49;80.96;98565.81;1679128;84;21008;-76
2021/08/19 00:49:12;;;;;;;1.25;0.98;;;;;;;13.51;80.94;98558.67;1672854;85;21023;-75
2021/08/19 00:51:50;;;;;;;2.05;1.10;;;;;;;13.53;81.03;98563.33;1676454;84;21685;-76
2021/08/19 00:54:23;;;;;;;0.88;0.75;;;;;;;13.54;81.09;98560.22;1676377;84;21241;-76
2021/08/19 00:56:56;;;;;;;1.27;1.17;;;;;;;13.55;81.17;98565.33;1673382;84;21068;-75
2021/08/19 00:59:26;;;;;;;1.32;1.22;;;;;;;13.55;81.18;98561.88;1670715;84;21215;-75
2021/08/19 01:01:59;;;;;;;1.52;1.10;;;;;;;13.55;81.23;98560.08;1643122;84;20931;-75
2021/08/19 01:04:36;;;;;;;1.95;1.27;;;;;;;13.56;81.23;98559.15;1643169;85;21110;-76
2021/08/19 01:07:51;;;;;;;1.10;0.90;;;;;;;13.62;81.43;98563.91;1833725;76;22699;-75
2021/08/19 01:10:17;;;;;;;0.65;0.60;;;;;;;13.59;81.36;98559.39;1817403;77;21129;-75
2021/08/19 01:12:45;;;;;;;0.62;0.62;;;;;;;13.60;81.42;98555.31;1813546;77;21067;-75
2021/08/19 01:15:13;;;;;;;0.62;0.62;;;;;;;13.60;81.43;98560.56;1822652;78;20955;-75
2021/08/19 01:17:40;;;;;;;0.50;0.50;;;;;;;13.61;81.48;98557.45;1818056;78;20973;-75
2021/08/19 01:20:09;;;;;;;0.70;0.70;;;;;;;13.60;81.52;98547.45;1816876;78;20942;-75
2021/08/19 01:22:36;;;;;;;1.10;0.90;;;;;;;13.59;81.53;98544.48;1813204;78;21024;-75
2021/08/19 01:25:03;;;;;;;0.70;0.70;;;;;;;13.58;81.57;98541.52;1813018;78;21115;-75
2021/08/19 01:27:31;;;;;;;1.32;1.00;;;;;;;13.60;81.66;98544.83;1784015;78;20968;-75
2021/08/19 01:29:57;;;;;;;1.00;0.80;;;;;;;13.61;81.67;98549.14;1821335;78;23584;-75
2021/08/19 01:32:24;;;;;;;3.17;1.00;;;;;;;13.63;81.78;98543.27;1808638;78;21511;-75
2021/08/19 01:34:53;;;;;;;1.10;1.00;;;;;;;13.63;81.78;98543.27;1815054;78;20970;-75
2021/08/19 01:37:19;;;;;;;1.27;1.12;;;;;;;13.54;82.18;98516.47;1811585;78;21227;-75
2021/08/19 01:39:46;;;;;;;2.83;1.20;;;;;;;13.54;82.18;98516.47;1814036;78;20962;-75
2021/08/19 01:42:13;;;;;;;1.85;1.20;;;;;;;13.66;81.90;98536.47;1816298;78;20911;-75
2021/08/19 01:44:40;;;;;;;1.27;1.00;;;;;;;13.66;81.90;98531.22;1810707;78;20931;-75
2021/08/19 01:47:09;;;;;;;2.55;1.50;;;;;;;13.67;82.00;98525.53;1818481;78;21002;-75
2021/08/19 01:49:40;;;;;;;1.92;1.27;;;;;;;13.68;81.98;98527.67;1814913;76;21848;-75
2021/08/19 01:52:11;;;;;;;1.50;1.10;;;;;;;13.70;82.06;98536.26;1813441;78;20993;-76
2021/08/19 01:54:38;;;;;;;2.17;1.40;;;;;;;13.71;82.08;98527.42;1784697;78;21567;-75
2021/08/19 01:57:07;;;;;;;1.17;1.07;;;;;;;13.66;82.08;98523.36;1798564;78;20956;-75
2021/08/19 01:59:34;;;;;;;1.67;1.20;;;;;;;13.72;82.12;98529.08;1817243;78;20922;-76
2021/08/19 02:02:00;;;;;;;1.90;1.30;;;;;;;13.60;82.14;98502.86;1815044;78;22000;-75
2021/08/19 02:04:29;;;;;;;1.87;1.47;;;;;;;13.69;82.17;98514.41;1810393;78;21021;-75
2021/08/19 02:06:55;;;;;;;1.95;1.40;;;;;;;13.69;82.25;98521.45;1809391;78;21402;-75
2021/08/19 02:09:22;;;;;;;1.67;1.52;;;;;;;13.69;82.32;98522.28;1792789;78;20977;-75
2021/08/19 02:11:50;;;;;;;1.72;1.62;;;;;;;13.71;82.36;98514.30;1762777;80;20988;-75
2021/08/19 02:14:18;;;;;;;5.05;2.10;;;;;;;13.72;82.46;98513.34;1722793;79;21144;-75
2021/08/19 02:16:45;;;;;;;;;;;;;;;13.72;82.46;98513.34;1750220;81;21054;-75
2021/08/19 02:19:12;;;;;;;2.62;2.40;;;;;;;13.73;82.51;98517.65;1762053;80;20427;-75
2021/08/19 02:21:39;;;;;;;2.67;2.27;;;;;;;13.76;82.54;98506.91;1757625;81;20982;-75
2021/08/19 02:24:06;;;;;;;5.37;3.42;;;;;;;13.76;82.54;98506.91;1763524;79;21451;-75
2021/08/19 02:26:33;;;;;;;3.52;2.75;;;;;;;13.78;82.53;98502.35;1759006;79;21077;-75
2021/08/19 02:29:00;;;;;;;3.37;3.08;;;;;;;13.80;82.61;98503.07;1761610;79;24507;-75
2021/08/19 02:31:27;;;;;;;3.75;3.20;;;;;;;13.79;82.54;98506.66;1754918;79;20961;-75
2021/08/19 02:33:54;;;;;;;7.17;3.67;;;;;;;13.80;82.57;98500.45;1762342;80;20950;-75
2021/08/19 02:36:21;;;;;;;4.67;3.45;;;;;;;13.81;82.62;98500.83;1767178;80;21109;-75
2021/08/19 02:38:48;;;;;;;4.73;3.83;;;;;;;13.82;82.62;98505.93;1769179;80;21147;-75
2021/08/19 02:41:15;;;;;;;3.60;3.30;;;;;;;13.84;82.62;98505.83;1763597;79;22875;-75
2021/08/19 02:43:43;;;;;;;4.00;3.40;;;;;;;13.85;82.64;98508.80;1758552;79;21142;-75
2021/08/19 02:46:12;;;;;;;3.55;3.10;;;;;;;13.85;82.58;98503.55;1736248;81;21499;-75
2021/08/19 02:48:39;;;;;;;4.65;3.27;;;;;;;13.86;82.66;98499.95;1750027;81;21013;-75
2021/08/19 02:51:06;;;;;;;4.65;3.40;;;;;;;13.87;82.66;98493.77;1747010;81;21790;-75
2021/08/19 02:53:33;;;;;;;5.15;3.20;;;;;;;13.85;82.69;98487.80;1780048;79;20988;-75
2021/08/19 02:56:06;;;;;;;5.83;3.60;;;;;;;13.83;82.69;98492.33;1777269;79;22299;-75
2021/08/19 02:58:29;;;;;;;5.85;3.58;;;;;;;13.85;82.59;98487.80;1778585;79;20949;-75
2021/08/19 03:00:56;;;;;;;4.78;3.80;;;;;;;13.85;82.59;98487.80;1781767;79;21142;-75
2021/08/19 03:03:23;;;;;;;6.20;3.87;;;;;;;13.85;82.79;98488.62;1759649;79;21688;-75
2021/08/19 03:05:49;;;;;;;7.33;3.72;;;;;;;13.84;82.84;98492.70;1783710;79;20878;-75
2021/08/19 03:08:16;;;;;;;5.42;3.12;;;;;;;13.84;82.81;98497.95;1779242;79;21528;-75
2021/08/19 03:10:43;;;;;;;4.43;3.13;;;;;;;13.84;82.84;98484.34;1782319;79;21001;-75
2021/08/19 03:13:09;;;;;;;4.00;3.70;;;;;;;13.86;82.87;98494.70;1781568;79;21660;-75
2021/08/19 03:15:36;;;;;;;8.40;3.92;;;;;;;13.84;82.83;98504.52;1764497;79;21116;-76
2021/08/19 03:18:03;;;;;;;6.80;3.10;;;;;;;13.84;82.85;98497.95;1751490;81;21596;-75
2021/08/19 03:20:30;;;;;;;7.80;3.63;;;;;;;13.84;82.85;98491.39;1788538;79;22325;-75
2021/08/19 03:22:56;;;;;;;5.30;3.40;;;;;;;13.85;82.89;98506.17;1763368;79;21024;-75
2021/08/19 03:25:23;;;;;;;4.63;3.40;;;;;;;13.86;82.89;98502.58;1777302;79;20969;-76
2021/08/19 03:27:50;;;;;;;3.47;3.17;;;;;;;13.87;82.91;98504.27;1773708;79;21007;-76
2021/08/19 03:30:17;;;;;;;4.67;3.47;;;;;;;13.88;82.91;98503.30;1780654;79;20951;-75
2021/08/19 03:32:44;;;;;;;5.90;3.50;;;;;;;13.86;82.93;98509.13;1781261;79;21650;-76
2021/08/19 03:35:11;;;;;;;5.13;3.50;;;;;;;13.86;82.95;98505.20;1777923;79;21014;-75
2021/08/19 03:37:37;;;;;;;6.45;3.27;;;;;;;13.87;82.95;98512.13;1782983;79;21004;-75
2021/08/19 03:40:05;;;;;;;5.78;3.45;;;;;;;13.86;82.92;98503.89;1787241;79;21941;-75
2021/08/19 03:42:31;;;;;;;;;;;;;;;13.85;83.03;98512.73;1788004;79;21060;-76
2021/08/19 03:44:58;;;;;;;3.35;3.05;;;;;;;13.84;83.07;98507.13;1780544;79;20111;-75
2021/08/19 03:47:26;;;;;;;4.60;3.77;;;;;;;13.82;83.11;98511.18;1765703;79;20979;-75
2021/08/19 03:49:53;;;;;;;;;;;;;;;13.82;83.08;98512.97;1767405;79;20995;-76
2021/08/19 03:52:20;;;;;;;3.85;3.00;;;;;;;13.80;83.22;98510.94;1770083;79;21320;-76
2021/08/19 03:54:46;;;;;;;3.50;2.83;;;;;;;13.74;83.09;98506.19;1761808;81;20964;-76
2021/08/19 03:57:13;;;;;;;3.50;3.20;;;;;;;13.78;83.18;98499.73;1782131;79;20969;-76
2021/08/19 03:59:40;;;;;;;5.50;3.73;;;;;;;13.78;83.24;98518.95;1779122;79;21601;-76
2021/08/19 04:02:06;;;;;;;3.08;2.77;;;;;;;13.79;83.23;98519.78;1772455;79;21751;-76
2021/08/19 04:04:33;;;;;;;3.55;2.98;;;;;;;13.80;83.28;98524.06;1766604;79;20989;-74
2021/08/19 04:07:00;;;;;;;4.80;2.83;;;;;;;13.80;83.30;98522.27;1769079;79;21044;-78
2021/08/19 04:09:27;;;;;;;3.85;2.70;;;;;;;13.78;83.22;98520.72;1735587;81;20961;-85
2021/08/19 04:11:54;;;;;;;2.65;2.25;;;;;;;13.78;83.23;98522.89;1741441;80;21580;-75
2021/08/19 04:14:20;;;;;;;2.73;2.50;;;;;;;13.77;83.25;98525.62;1726394;81;21074;-76
2021/08/19 04:16:47;;;;;;;2.33;2.12;;;;;;;13.77;83.30;98526.93;1743750;81;21277;-79
2021/08/19 04:19:14;;;;;;;5.42;2.90;;;;;;;13.78;83.31;98518.09;1758618;79;20999;-72
2021/08/19 04:21:41;;;;;;;3.70;2.62;;;;;;;13.77;83.33;98516.44;1759164;79;21661;-74
2021/08/19 04:24:07;;;;;;;10.18;3.02;;;;;;;13.75;83.41;98509.16;1766957;79;20973;-75
2021/08/19 04:26:34;;;;;;;4.40;3.30;;;;;;;13.73;83.46;98514.55;1763289;79;21042;-75
2021/08/19 04:29:00;;;;;;;4.12;3.08;;;;;;;13.74;83.46;98504.39;1761632;81;21996;-75
2021/08/19 04:31:27;;;;;;;4.93;3.00;;;;;;;13.73;83.46;98513.72;1761392;81;20900;-75
2021/08/19 04:33:54;;;;;;;2.60;2.25;;;;;;;13.72;83.51;98510.72;1764135;79;21660;-75
2021/08/19 04:36:20;;;;;;;3.08;2.50;;;;;;;13.72;83.60;98515.96;1749712;81;22103;-75
2021/08/19 04:38:47;;;;;;;3.30;2.80;;;;;;;13.72;83.64;98511.55;1745482;81;22160;-75
2021/08/19 04:41:14;;;;;;;3.00;2.70;;;;;;;13.74;83.60;98519.30;1746068;81;21165;-74
2021/08/19 04:43:40;;;;;;;5.23;2.60;;;;;;;13.75;83.67;98515.72;1734847;82;20998;-75
2021/08/19 04:46:07;;;;;;;3.20;2.90;;;;;;;13.79;83.70;98518.47;1753092;81;20974;-74
2021/08/19 04:48:33;;;;;;;3.47;2.90;;;;;;;13.82;83.71;98516.91;1758031;81;20926;-74
2021/08/19 04:51:00;;;;;;;4.58;3.25;;;;;;;13.85;83.70;98521.91;1762448;81;21017;-75
2021/08/19 04:53:26;;;;;;;3.03;2.73;;;;;;;13.88;83.76;98524.28;1754415;81;21058;-74
2021/08/19 04:55:53;;;;;;;2.93;2.57;;;;;;;13.91;83.78;98526.66;1755068;81;20929;-74
2021/08/19 04:58:20;;;;;;;3.40;2.80;;;;;;;13.91;83.75;98539.78;1759410;81;22177;-74
2021/08/19 05:00:46;;;;;;;3.47;2.90;;;;;;;13.91;83.75;98533.70;1756222;81;20989;-75
2021/08/19 05:03:13;;;;;;;2.93;2.60;;;;;;;13.91;83.78;98531.91;1743432;81;21579;-74
2021/08/19 05:05:39;;;;;;;3.03;2.77;;;;;;;13.92;83.83;98535.36;1768515;79;21092;-74
2021/08/19 05:08:06;;;;;;;2.83;2.53;;;;;;;13.93;83.82;98530.00;1776914;79;21010;-74
2021/08/19 05:10:33;;;;;;;2.57;2.30;;;;;;;13.96;83.80;98536.80;1738809;81;20994;-75
2021/08/19 05:13:00;;;;;;;2.40;2.20;;;;;;;13.87;83.80;98509.51;1758141;81;20962;-74
2021/08/19 05:15:26;;;;;;;2.37;1.80;;;;;;;13.97;83.77;98540.59;1752696;81;21660;-75
2021/08/19 05:17:53;;;;;;;2.90;2.50;;;;;;;13.99;83.76;98537.86;1747895;81;21095;-75
2021/08/19 05:20:20;;;;;;;2.77;2.10;;;;;;;13.97;83.79;98545.84;1775938;79;21052;-74
2021/08/19 05:22:47;;;;;;;2.95;2.20;;;;;;;13.98;83.76;98540.97;1775225;79;21073;-74
2021/08/19 05:25:14;;;;;;;2.80;1.90;;;;;;;14.00;83.79;98541.69;1772011;79;20969;-75
2021/08/19 05:27:40;;;;;;;2.33;2.13;;;;;;;13.98;83.73;98540.97;1748889;81;21670;-74
2021/08/19 05:30:09;;;;;;;3.17;2.30;;;;;;;13.99;83.77;98545.73;1776544;79;21081;-75
2021/08/19 05:32:36;;;;;;;2.33;2.02;;;;;;;13.98;83.81;98548.84;1769636;80;21036;-75
2021/08/19 05:35:04;;;;;;;3.22;1.70;;;;;;;13.98;83.74;98548.84;1776571;79;20985;-74
2021/08/19 05:37:31;;;;;;;2.35;1.92;;;;;;;13.98;83.75;98554.09;1777866;79;21125;-74
2021/08/19 05:39:58;;;;;;;2.45;1.90;;;;;;;13.96;83.78;98561.25;1774624;79;26763;-75
2021/08/19 05:42:24;;;;;;;2.33;1.90;;;;;;;13.96;83.81;98556.00;1776566;79;21936;-75
2021/08/19 05:44:51;;;;;;;3.87;1.90;;;;;;;13.98;83.84;98555.41;1772043;79;20926;-74
2021/08/19 05:47:18;;;;;;;1.50;1.40;;;;;;;13.98;83.79;98558.03;1775742;79;20949;-74
2021/08/19 05:49:45;;;;;;;2.53;1.70;;;;;;;13.96;83.76;98557.31;1741279;81;21639;-74
2021/08/19 05:52:15;;;;;;;2.52;1.45;;;;;;;13.96;84.08;98556.00;1768100;80;21171;-75
2021/08/19 05:54:42;;;;;;;2.22;1.80;;;;;;;13.96;84.08;98556.00;1775544;79;21153;-75
2021/08/19 05:57:09;;;;;;;2.65;1.85;;;;;;;14.03;83.98;98554.56;1783078;79;20911;-74
2021/08/19 05:59:36;;;;;;;2.50;2.05;;;;;;;14.12;84.04;98556.09;1777815;79;20953;-74
2021/08/19 06:02:03;;;;;;;2.93;2.17;;;;;;;14.12;83.87;98560.86;1764350;79;20998;-75
2021/08/19 06:04:30;;;;;;;2.65;2.10;;;;;;;14.21;84.04;98562.74;1768742;79;21547;-75
2021/08/19 06:07:04;;;;;;;4.07;2.33;;;;;;;14.24;83.82;98566.91;1777920;79;21886;-79
2021/08/19 06:16:32;;;;;;;3.42;2.70;;;;;;;14.48;83.86;98575.44;1502251;93;21125;-79
2021/08/19 06:19:00;;;;;;;4.67;2.60;;;;;;;14.50;83.81;98573.49;1492343;94;21146;-78
2021/08/19 06:21:27;;;;;;;;;;;;;;;14.55;83.93;98575.78;1512209;94;21193;-77
2021/08/19 06:23:53;;;;;;;3.85;2.50;;;;;;;14.59;83.88;98579.84;1512900;94;27027;-78
2021/08/19 06:33:33;;;;;;;3.02;2.25;;;;;;;14.75;83.74;98584.66;1372021;103;21705;-78
2021/08/19 06:35:59;;;;;;;3.52;2.22;;;;;;;14.78;83.67;98600.16;1371191;103;21710;-78
2021/08/19 06:42:00;;;;;;;2.67;1.57;;;;;;;14.73;83.46;98589.20;1336906;104;21257;-79
2021/08/19 06:44:27;;;;;;;3.20;1.85;;;;;;;14.61;83.45;98592.84;1348959;104;21247;-79
2021/08/19 06:46:53;;;;;;;2.17;1.82;;;;;;;14.58;83.51;98593.09;1363039;102;21419;-78
2021/08/19 06:51:23;;;;;;;3.85;1.77;;;;;;;14.65;83.68;98589.02;1863277;75;22672;-77
2021/08/19 06:54:57;;;;;;;2.10;1.90;;;;;;;14.68;83.80;98594.02;1762945;78;22832;-78
2021/08/19 07:10:20;;;;;;;4.78;1.55;;;;;;;15.51;83.52;98579.17;1752415;80;22735;-77
2021/08/19 07:12:47;;;;;;;5.83;1.27;;;;;;;15.51;83.52;98579.17;1750984;80;21032;-83
2021/08/19 07:15:14;;;;;;;5.47;1.37;;;;;;;15.68;83.08;98602.25;1741712;80;21151;-77
2021/08/19 07:17:41;;;;;;;1.60;1.47;;;;;;;15.69;83.04;98598.67;1744122;81;21025;-81
2021/08/19 07:20:13;;;;;;;4.50;1.20;;;;;;;15.75;83.29;98592.88;1746416;80;21063;-81
2021/08/19 07:22:44;;;;;;;2.58;1.17;;;;;;;16.02;83.56;98588.79;1743348;80;20979;-80
2021/08/19 07:29:36;;;;;;;1.60;1.10;;;;;;;16.97;82.93;98580.30;1807620;75;24006;-77
2021/08/19 07:32:25;;;;;;;1.15;0.90;;;;;;;17.12;82.94;98596.04;1813401;77;20996;-75
2021/08/19 07:34:54;;;;;;;4.30;1.20;;;;;;;17.40;82.62;98597.44;1765538;79;21279;-76
2021/08/19 07:37:21;;;;;;;1.40;0.95;;;;;;;17.53;82.36;98583.45;1782695;78;21637;-76
2021/08/19 07:39:47;;;;;;;1.72;1.30;;;;;;;17.66;82.14;98586.57;1800320;78;21013;-76
2021/08/19 07:42:14;;;;;;;1.95;1.15;;;;;;;18.11;82.84;98587.14;1774328;79;21043;-76
2021/08/19 07:44:41;;;;;;;1.72;1.52;;;;;;;18.48;82.41;98586.20;1809115;78;20969;-76
2021/08/19 07:47:08;;;;;;;2.45;1.47;;;;;;;18.64;81.85;98580.74;1814036;78;21077;-76
2021/08/19 07:49:34;;;;;;;2.83;1.37;;;;;;;18.65;81.69;98589.00;1779621;78;20935;-76
2021/08/19 07:52:01;;;;;;;4.72;1.40;;;;;;;18.65;81.24;98580.61;1800975;78;20946;-76
2021/08/19 07:54:28;;;;;;;3.22;2.02;;;;;;;18.52;80.76;98574.36;1798720;78;21596;-76
2021/08/19 07:56:54;;;;;;;3.10;1.50;;;;;;;18.21;80.32;98580.98;1801811;77;20936;-75
2021/08/19 07:59:21;;;;;;;2.50;1.57;;;;;;;18.06;80.93;98590.74;1799565;77;21064;-75
2021/08/19 08:01:48;;;;;;;5.15;1.47;;;;;;;18.11;80.83;98584.50;1779476;78;21054;-75
2021/08/19 08:04:15;;;;;;;2.50;1.80;;;;;;;18.04;80.66;98587.41;1782055;78;21037;-76
2021/08/19 08:06:42;;;;;;;;;;;;;;;18.10;80.96;98588.13;1783052;78;21968;-75
2021/08/19 08:09:08;;;;;;;;;;;;;;;18.10;80.65;98593.41;1794828;78;20124;-75
2021/08/19 08:11:37;;;;;;;1.98;1.65;;;;;;;18.01;80.38;98597.41;1774208;78;21098;-75
2021/08/19 08:14:03;;;;;;;3.20;1.57;;;;;;;17.95;80.58;98597.52;1785130;78;21082;-75
2021/08/19 08:16:32;;;;;;;3.22;1.80;;;;;;;18.14;81.08;98593.94;1795601;78;21363;-75
2021/08/19 08:19:02;;;;;;;2.08;1.40;;;;;;;18.30;80.62;98594.12;1795384;78;21074;-75
2021/08/19 08:21:30;;;;;;;2.22;1.67;;;;;;;18.33;80.17;98602.25;1793736;78;20922;-75
2021/08/19 08:23:58;;;;;;;2.15;1.75;;;;;;;18.25;80.00;98607.44;1792699;78;21159;-75
2021/08/19 08:26:25;;;;;;;2.05;1.40;;;;;;;18.31;80.09;98608.16;1787510;78;21032;-75
2021/08/19 08:28:54;;;;;;;2.30;1.30;;;;;;;18.33;79.62;98605.72;1807725;77;20919;-75
2021/08/19 08:31:20;;;;;;;3.50;1.70;;;;;;;18.43;79.85;98609.62;1803065;77;21045;-75
2021/08/19 08:33:47;;;;;;;1.87;1.22;;;;;;;18.52;79.73;98610.05;1797753;77;21250;-75
2021/08/19 08:36:14;;;;;;;2.05;1.42;;;;;;;18.62;79.47;98621.86;1802545;77;21059;-75
2021/08/19 08:38:42;;;;;;;2.22;1.37;;;;;;;18.53;78.78;98624.09;1805412;78;21057;-75
2021/08/19 08:41:09;;;;;;;4.25;1.57;;;;;;;18.39;79.06;98621.46;1802792;77;20974;-75
2021/08/19 08:43:37;;;;;;;2.42;1.50;;;;;;;18.37;79.05;98630.52;1798574;77;20967;-75
2021/08/19 08:46:09;;;;;;;5.12;1.40;;;;;;;18.10;78.38;98646.25;1793782;77;20928;-74
2021/08/19 08:48:36;;;;;;;5.12;1.60;;;;;;;17.72;78.09;98649.01;1796305;77;21337;-74
2021/08/19 08:51:03;;;;;;;2.70;1.40;;;;;;;17.29;78.29;98671.47;1801259;77;21022;-73
2021/08/19 08:53:29;;;;;;;1.75;1.30;;;;;;;16.99;78.52;98683.83;1794492;78;20919;-74
2021/08/19 08:55:56;;;;;;;1.67;1.10;;;;;;;16.72;78.69;98700.27;1789206;78;21505;-74
2021/08/19 08:58:23;;;;;;;1.55;1.12;;;;;;;16.59;78.85;98697.91;1795086;78;20975;-74
2021/08/19 09:00:53;;;;;;;2.23;1.00;;;;;;;16.55;78.54;98693.86;1796565;78;22416;-75
2021/08/19 09:03:21;;;;;;;1.77;1.10;;;;;;;16.42;78.51;98690.66;1772292;78;21247;-75
2021/08/19 09:05:52;;;;;;;1.57;1.22;;;;;;;16.45;78.60;98695.66;1784241;78;21605;-75
2021/08/19 09:08:24;;;;;;;3.33;1.57;;;;;;;16.64;79.10;98703.61;1769309;78;21050;-76
2021/08/19 09:10:55;;;;;;;1.90;1.00;;;;;;;16.99;79.17;98707.56;1778596;78;21030;-77
2021/08/19 09:13:29;;;;;;;2.05;1.10;;;;;;;17.37;79.11;98704.59;1776928;78;21187;-75
2021/08/19 09:16:18;;;;;;;4.47;1.30;;;;;;;17.73;78.81;98712.70;1781069;78;21580;-74
2021/08/19 09:18:45;;;;;;;2.37;1.20;;;;;;;18.18;79.01;98712.06;1775152;79;20990;-77
2021/08/19 09:21:22;;;;;;;1.98;1.12;;;;;;;18.47;78.15;98711.41;1789105;78;20958;-74
2021/08/19 09:24:17;;;;;;;3.20;1.20;;;;;;;18.63;77.80;98709.95;1795501;78;21116;-75
2021/08/19 09:27:05;;;;;;;2.08;1.20;;;;;;;18.71;77.84;98704.76;1802846;78;21082;-73
2021/08/19 09:29:34;;;;;;;2.77;1.27;;;;;;;18.80;77.59;98705.20;1795989;78;21657;-73
2021/08/19 09:32:19;;;;;;;2.77;1.37;;;;;;;18.92;77.62;98702.67;1795401;78;21040;-73
2021/08/19 09:34:48;;;;;;;1.90;1.50;;;;;;;19.15;77.40;98715.45;1792374;78;21091;-75
2021/08/19 09:37:19;;;;;;;3.70;1.60;;;;;;;19.22;77.17;98712.05;1792471;78;21507;-74
2021/08/19 09:39:58;;;;;;;3.00;1.35;;;;;;;19.21;76.91;98714.84;1795394;78;21856;-73
2021/08/19 09:42:38;;;;;;;3.20;1.30;;;;;;;19.23;76.43;98725.61;1796614;78;21538;-75
2021/08/19 09:45:25;;;;;;;4.62;1.70;;;;;;;19.11;76.34;98719.40;1801550;78;21175;-75
2021/08/19 09:47:59;;;;;;;2.62;1.50;;;;;;;19.05;76.50;98726.13;1794110;78;21095;-72
2021/08/19 09:50:26;;;;;;;3.83;1.60;;;;;;;19.18;76.79;98733.66;1774797;79;20980;-73
2021/08/19 09:52:53;;;;;;;2.87;1.40;;;;;;;19.23;76.37;98720.81;1783627;79;21080;-73
2021/08/19 09:55:31;;;;;;;3.70;1.57;;;;;;;19.38;76.18;98731.69;1799047;78;21063;-73
2021/08/19 09:58:01;;;;;;;3.08;1.57;;;;;;;19.40;75.83;98731.88;1790770;78;20917;-71
2021/08/19 10:00:31;;;;;;;3.60;1.50;;;;;;;19.52;76.10;98727.66;1835167;76;20944;-72
2021/08/19 10:16:54;;;;;;;3.65;2.10;;;;;;;19.19;74.55;98755.20;1775790;79;22404;-75
2021/08/19 10:19:29;;;;;;;4.78;2.08;;;;;;;19.01;74.76;98759.96;1749062;80;22276;-73
2021/08/19 10:22:06;;;;;;;3.80;1.90;;;;;;;18.93;74.85;98762.55;1746390;81;21034;-74
2021/08/19 10:24:34;;;;;;;;;;;;;;;18.76;74.06;98769.47;1745939;80;21792;-74
2021/08/19 10:27:18;;;;;;;4.60;1.70;;;;;;;18.38;74.31;98770.45;1745812;81;20640;-74
2021/08/19 10:29:55;;;;;;;2.47;1.75;;;;;;;18.27;74.76;98770.63;1751618;81;21077;-74
2021/08/19 10:32:39;;;;;;;3.70;1.85;;;;;;;18.19;74.66;98775.80;1744048;80;21029;-76
2021/08/19 10:35:12;;;;;;;2.70;1.47;;;;;;;18.04;74.46;98773.62;1745606;81;21287;-77
2021/08/19 10:37:55;;;;;;;3.12;1.57;;;;;;;18.18;74.98;98772.83;1743215;80;21576;-75
2021/08/19 10:40:31;;;;;;;3.22;1.70;;;;;;;18.28;74.84;98770.96;1749405;80;22274;-76
2021/08/19 10:43:18;;;;;;;3.40;2.15;;;;;;;18.48;74.71;98773.86;1744696;80;21115;-75
2021/08/19 10:45:46;;;;;;;5.37;2.25;;;;;;;18.56;74.57;98768.68;1750011;80;21678;-76
2021/08/19 10:48:22;;;;;;;2.65;1.75;;;;;;;18.77;74.63;98772.94;1751755;80;21069;-76
2021/08/19 10:50:49;;;;;;;3.10;1.82;;;;;;;18.93;74.46;98774.45;1746206;80;21352;-77
2021/08/19 10:53:22;;;;;;;3.83;2.00;;;;;;;19.06;74.60;98779.86;1740418;80;21865;-75
2021/08/19 10:55:52;;;;;;;3.58;1.52;;;;;;;19.01;74.04;98775.83;1747661;81;21033;-75
2021/08/19 10:58:31;;;;;;;5.40;2.22;;;;;;;18.91;73.71;98777.73;1747078;80;21528;-75
2021/08/19 11:01:02;;;;;;;3.37;1.98;;;;;;;18.81;73.94;98786.69;1716395;81;21099;-75
2021/08/19 11:03:48;;;;;;;4.80;1.72;;;;;;;18.46;73.55;98787.73;1717444;81;21026;-76
2021/08/19 11:06:23;;;;;;;3.80;1.75;;;;;;;18.16;73.09;98799.87;1702425;83;22090;-75
2021/08/19 11:08:55;;;;;;;2.12;1.57;;;;;;;17.78;73.48;98809.48;1718715;82;21069;-75
2021/08/19 11:11:30;;;;;;;3.42;1.60;;;;;;;17.38;73.06;98815.74;1699338;82;22067;-75
2021/08/19 11:14:10;;;;;;;1.90;1.62;;;;;;;16.94;73.45;98825.79;1690838;83;21035;-75
2021/08/19 11:16:39;;;;;;;1.42;0.98;;;;;;;16.72;73.72;98821.06;1693628;82;22493;-75
2021/08/19 11:19:19;;;;;;;2.62;1.10;;;;;;;16.33;73.29;98838.02;1688393;83;21645;-75
2021/08/19 11:22:00;;;;;;;2.42;1.15;;;;;;;16.10;73.56;98836.48;1698843;83;21070;-75
2021/08/19 11:24:33;;;;;;;2.00;1.05;;;;;;;15.96;73.77;98839.44;1696391;82;21112;-75
2021/08/19 11:27:10;;;;;;;1.52;0.85;;;;;;;15.88;74.09;98835.66;1698456;82;21888;-75
2021/08/19 11:29:43;;;;;;;1.85;1.07;;;;;;;16.11;74.07;98839.48;1699886;82;21065;-75
2021/08/19 11:32:13;;;;;;;2.50;1.42;;;;;;;15.99;73.60;98833.91;1695337;82;21712;-75
2021/08/19 11:35:03;;;;;;;3.40;1.27;;;;;;;16.12;73.92;98839.82;1695500;82;21100;-75
2021/08/19 11:37:41;;;;;;;3.75;1.40;;;;;;;16.24;73.99;98849.31;1695719;82;21037;-75
2021/08/19 11:42:34;;;;;;;3.10;1.47;;;;;;;16.47;74.02;98849.19;1872383;74;22512;-76
2021/08/19 11:45:22;;;;;;;2.10;1.20;;;;;;;16.73;74.71;98846.45;1787554;77;21313;-76
2021/08/19 11:47:52;;;;;;;2.85;1.47;;;;;;;17.34;74.86;98852.13;1824235;77;21624;-76
2021/08/19 11:50:24;;;;;;;2.67;1.70;;;;;;;17.74;74.35;98845.06;1819965;77;21042;-76
2021/08/19 11:53:02;;;;;;;3.15;1.70;;;;;;;17.97;74.04;98839.86;1821718;77;20940;-76
2021/08/19 11:55:31;;;;;;;3.08;1.82;;;;;;;18.06;73.87;98854.02;1801033;77;21023;-76
2021/08/19 11:58:21;;;;;;;2.77;1.50;;;;;;;18.16;74.09;98848.25;1814910;77;20980;-76
2021/08/19 12:01:06;;;;;;;3.62;1.82;;;;;;;18.34;74.00;98850.98;1805899;77;21075;-76
2021/08/19 12:03:43;;;;;;;3.02;1.70;;;;;;;18.59;74.15;98853.97;1813198;77;21059;-76
2021/08/19 12:06:21;;;;;;;3.12;1.67;;;;;;;18.76;73.87;98848.80;1808757;77;24574;-76
2021/08/19 12:08:52;;;;;;;2.70;1.65;;;;;;;18.81;73.69;98856.77;1783294;76;20992;-75
2021/08/19 12:11:28;;;;;;;5.00;1.85;;;;;;;18.83;73.71;98856.97;1802501;77;20964;-76
2021/08/19 12:13:57;;;;;;;3.35;1.85;;;;;;;18.76;73.75;98865.13;1788629;77;22430;-76
2021/08/19 12:16:29;;;;;;;3.80;2.00;;;;;;;18.76;73.83;98863.81;1799868;77;21043;-76
2021/08/19 12:19:25;;;;;;;2.02;1.67;;;;;;;18.93;74.00;98859.09;1827535;76;22684;-76
2021/08/19 12:22:00;;;;;;;3.52;1.90;;;;;;;19.14;74.15;98856.68;1814695;77;21154;-77
2021/08/19 12:24:36;;;;;;;3.22;1.95;;;;;;;19.61;74.30;98857.34;1815831;78;21050;-77
2021/08/19 12:28:25;;;;;;;4.22;1.50;;;;;;;19.80;72.41;98861.69;1858844;75;22490;-76
2021/08/19 12:30:56;;;;;;;4.87;1.35;;;;;;;19.55;72.11;98857.09;1811537;77;20965;-76
2021/08/19 12:33:32;;;;;;;2.52;1.25;;;;;;;19.43;72.56;98870.55;1823191;77;21606;-76
2021/08/19 12:36:19;;;;;;;3.35;1.20;;;;;;;19.30;72.34;98870.09;1799464;77;21012;-77
2021/08/19 12:38:50;;;;;;;3.27;1.65;;;;;;;19.32;72.01;98876.05;1792104;78;20957;-77
2021/08/19 12:41:20;;;;;;;2.77;1.77;;;;;;;19.12;71.52;98886.41;1812434;77;20930;-76
2021/08/19 12:44:09;;;;;;;4.15;1.75;;;;;;;18.82;71.59;98894.98;1809840;76;22162;-76